Time;durP1;ratioP1;P1;durP2;ratioP2;P2;SDS_P1;SDS_P2;PMS_P1;PMS_P2;Temp;Humidity;BMP_temperature;BMP_pressure;BME280_temperature;BME280_humidity;BME280_pressure;Samples;Min_cycle;Max_cycle;Signal;HPM_P1;HPM_P2
2023/01/11 00:00:59;;;;;;;21.40;12.77;;;3.20;99.90;;;;;;2074491;28;20025;-76
2023/01/11 00:02:00;;;;;;;24.98;13.38;;;3.20;99.90;;;;;;2079237;28;20033;-76
2023/01/11 00:03:03;;;;;;;20.50;12.20;;;3.20;99.90;;;;;;2077692;28;20040;-76
2023/01/11 00:04:03;;;;;;;21.15;12.18;;;3.20;99.90;;;;;;2078579;28;20065;-76
2023/01/11 00:05:04;;;;;;;22.27;12.63;;;3.20;99.90;;;;;;2076827;28;20052;-76
2023/01/11 00:06:07;;;;;;;20.17;11.85;;;3.30;99.90;;;;;;2064720;28;20038;-77
2023/01/11 00:07:07;;;;;;;20.58;12.00;;;3.30;99.90;;;;;;2064051;28;20030;-76
2023/01/11 00:08:08;;;;;;;18.73;11.60;;;3.30;99.90;;;;;;2067741;28;20034;-76
2023/01/11 00:09:08;;;;;;;22.52;12.27;;;3.40;99.90;;;;;;2069890;28;20042;-76
2023/01/11 00:10:09;;;;;;;19.70;11.82;;;3.40;99.90;;;;;;2081635;28;20514;-76
2023/01/11 00:11:13;;;;;;;19.25;11.90;;;3.40;99.90;;;;;;2079375;28;20483;-76
2023/01/11 00:12:14;;;;;;;20.83;12.60;;;3.40;99.90;;;;;;2070341;28;20080;-76
2023/01/11 00:13:15;;;;;;;21.40;11.77;;;3.40;99.90;;;;;;2070564;28;20132;-75
2023/01/11 00:14:16;;;;;;;20.15;11.68;;;3.40;99.90;;;;;;2079784;28;20429;-76
2023/01/11 00:15:16;;;;;;;20.48;11.50;;;3.40;99.90;;;;;;2081931;28;20110;-76
2023/01/11 00:16:17;;;;;;;22.33;11.25;;;3.40;99.90;;;;;;2079232;28;20030;-76
2023/01/11 00:17:17;;;;;;;23.98;11.93;;;3.40;99.90;;;;;;2077126;28;20030;-75
2023/01/11 00:18:18;;;;;;;21.55;11.52;;;3.40;99.90;;;;;;2082226;28;20170;-76
2023/01/11 00:19:19;;;;;;;19.88;11.18;;;3.40;99.90;;;;;;2065648;28;20091;-76
2023/01/11 00:20:19;;;;;;;17.27;11.43;;;3.40;99.90;;;;;;2063859;28;20034;-74
2023/01/11 00:21:21;;;;;;;20.88;11.18;;;3.40;99.90;;;;;;2081342;28;20051;-76
2023/01/11 00:22:21;;;;;;;22.58;11.40;;;3.40;99.90;;;;;;2079396;28;20399;-77
2023/01/11 00:23:22;;;;;;;21.50;11.75;;;3.40;99.90;;;;;;2080177;28;20025;-76
2023/01/11 00:24:22;;;;;;;21.67;11.85;;;3.40;99.90;;;;;;2069754;28;20026;-77
2023/01/11 00:25:23;;;;;;;22.83;11.90;;;3.40;99.90;;;;;;2076188;28;20029;-77
2023/01/11 00:26:24;;;;;;;21.63;12.10;;;3.40;99.90;;;;;;2068549;28;21144;-76
2023/01/11 00:27:24;;;;;;;19.60;11.13;;;3.40;99.90;;;;;;2070303;28;20026;-75
2023/01/11 00:28:25;;;;;;;21.20;11.57;;;3.40;99.90;;;;;;2075743;28;20076;-76
2023/01/11 00:29:25;;;;;;;20.15;11.70;;;3.30;99.90;;;;;;2070487;28;20025;-75
2023/01/11 00:30:26;;;;;;;17.92;11.60;;;3.30;99.90;;;;;;2073442;28;20030;-76
2023/01/11 00:31:26;;;;;;;20.10;11.50;;;3.30;99.90;;;;;;2076311;28;20123;-75
2023/01/11 00:32:27;;;;;;;20.20;10.80;;;3.30;99.90;;;;;;2084311;28;20059;-76
2023/01/11 00:33:28;;;;;;;21.52;10.77;;;3.20;99.90;;;;;;2069090;28;20033;-76
2023/01/11 00:34:28;;;;;;;21.63;11.32;;;3.20;99.90;;;;;;2072011;28;20018;-76
2023/01/11 00:35:30;;;;;;;17.05;10.48;;;3.20;99.90;;;;;;2081310;28;20017;-75
2023/01/11 00:36:31;;;;;;;18.38;10.63;;;3.20;99.90;;;;;;2067734;28;20030;-76
2023/01/11 00:37:31;;;;;;;19.23;10.45;;;3.20;99.90;;;;;;2072948;28;20042;-76
2023/01/11 00:38:50;;;;;;;18.65;10.50;;;3.20;99.90;;;;;;2084657;28;20029;-75
2023/01/11 00:39:51;;;;;;;20.33;10.73;;;3.20;99.90;;;;;;2079396;28;20025;-75
2023/01/11 00:40:51;;;;;;;20.17;11.25;;;3.10;99.90;;;;;;2083296;28;20496;-75
2023/01/11 00:47:55;;;;;;;22.73;11.07;;;3.10;99.90;;;;;;2075478;28;20061;-78
2023/01/11 00:48:39;;;;;;;17.33;9.90;;;3.10;99.90;;;;;;2081571;28;20121;-78
2023/01/11 00:49:40;;;;;;;20.63;10.57;;;3.10;99.90;;;;;;2077294;28;20973;-79
2023/01/11 00:50:40;;;;;;;19.08;10.30;;;3.10;99.90;;;;;;2081652;28;20664;-77
2023/01/11 00:51:41;;;;;;;18.30;10.25;;;3.10;99.90;;;;;;2077100;28;20029;-76
2023/01/11 00:52:41;;;;;;;21.67;10.13;;;3.10;99.90;;;;;;2077016;28;20080;-77
2023/01/11 00:53:42;;;;;;;17.98;9.70;;;3.10;99.90;;;;;;2068368;28;20041;-75
2023/01/11 00:54:42;;;;;;;18.90;9.95;;;3.20;99.90;;;;;;2067196;28;20405;-74
2023/01/11 00:55:43;;;;;;;19.45;9.80;;;3.10;99.90;;;;;;2074677;28;20029;-74
2023/01/11 00:56:44;;;;;;;17.50;9.90;;;3.20;99.90;;;;;;2081346;28;20025;-74
2023/01/11 00:57:44;;;;;;;19.08;9.77;;;3.20;99.90;;;;;;2076212;28;20033;-75
2023/01/11 00:58:45;;;;;;;16.85;8.98;;;3.20;99.90;;;;;;2084255;28;20025;-75
2023/01/11 00:59:46;;;;;;;19.33;9.48;;;3.20;99.90;;;;;;2084795;28;20112;-76
2023/01/11 01:00:46;;;;;;;17.50;9.07;;;3.20;99.90;;;;;;2077700;28;20021;-75
2023/01/11 01:01:47;;;;;;;16.08;9.20;;;3.30;99.90;;;;;;2068151;28;20034;-76
2023/01/11 01:02:48;;;;;;;15.82;8.55;;;3.30;99.90;;;;;;2071332;28;20056;-76
2023/01/11 01:03:49;;;;;;;18.33;9.00;;;3.30;99.90;;;;;;2082130;28;20107;-76
2023/01/11 01:04:50;;;;;;;16.58;8.98;;;3.30;99.90;;;;;;2070175;28;20040;-76
2023/01/11 01:05:54;;;;;;;18.83;8.95;;;3.40;99.90;;;;;;2070778;28;20025;-75
2023/01/11 01:06:55;;;;;;;17.80;8.55;;;3.40;99.90;;;;;;2081144;28;20448;-75
2023/01/11 01:07:55;;;;;;;16.45;9.02;;;3.40;99.90;;;;;;2070963;28;20042;-75
2023/01/11 01:08:56;;;;;;;16.13;8.65;;;3.40;99.90;;;;;;2073184;28;20021;-76
2023/01/11 01:09:56;;;;;;;16.77;8.52;;;3.40;99.90;;;;;;2075429;28;20041;-75
2023/01/11 01:10:57;;;;;;;14.68;8.32;;;3.40;99.90;;;;;;2066693;28;20026;-75
2023/01/11 01:12:00;;;;;;;15.57;8.63;;;3.50;99.90;;;;;;2071761;28;20053;-76
2023/01/11 01:14:29;;;;;;;17.35;8.38;;;3.50;99.90;;;;;;2077929;28;20021;-75
2023/01/11 01:15:31;;;;;;;16.25;7.97;;;3.50;99.90;;;;;;2074355;28;20026;-74
2023/01/11 01:16:32;;;;;;;16.52;7.97;;;3.50;99.90;;;;;;2071219;28;20116;-75
2023/01/11 01:17:32;;;;;;;17.52;8.13;;;3.50;99.90;;;;;;2077676;28;20034;-76
2023/01/11 01:18:33;;;;;;;15.70;8.10;;;3.60;99.90;;;;;;2077907;28;20041;-76
2023/01/11 01:19:36;;;;;;;15.40;7.88;;;3.60;99.90;;;;;;2077847;28;20079;-75
2023/01/11 01:20:37;;;;;;;13.57;7.15;;;3.70;99.90;;;;;;2080580;28;20509;-75
2023/01/11 01:21:37;;;;;;;15.27;8.07;;;3.70;99.90;;;;;;2077398;28;20026;-75
2023/01/11 01:22:38;;;;;;;14.93;7.35;;;3.70;99.90;;;;;;2089798;28;20079;-75
2023/01/11 01:23:39;;;;;;;14.35;8.05;;;3.70;99.90;;;;;;2076761;28;20040;-75
2023/01/11 01:24:39;;;;;;;14.52;7.88;;;3.80;99.90;;;;;;2069094;28;20029;-75
2023/01/11 01:25:40;;;;;;;14.70;7.53;;;3.80;99.90;;;;;;2081982;28;20017;-76
2023/01/11 01:26:40;;;;;;;17.27;7.53;;;3.80;99.90;;;;;;2079408;28;20025;-76
2023/01/11 01:27:41;;;;;;;13.15;7.03;;;3.80;99.90;;;;;;2078233;28;20055;-76
2023/01/11 01:28:42;;;;;;;11.27;6.50;;;3.90;99.90;;;;;;2070189;28;20021;-75
2023/01/11 01:29:43;;;;;;;15.77;7.53;;;3.90;99.90;;;;;;2069270;28;20520;-77
2023/01/11 01:30:49;;;;;;;12.18;6.70;;;3.90;99.90;;;;;;2067570;28;20120;-76
2023/01/11 01:31:49;;;;;;;12.48;7.00;;;3.90;99.90;;;;;;2065927;28;20069;-76
2023/01/11 01:32:50;;;;;;;13.48;7.07;;;3.90;99.90;;;;;;2082303;28;20045;-76
2023/01/11 01:33:50;;;;;;;12.40;6.55;;;3.90;99.90;;;;;;2089215;28;20257;-75
2023/01/11 01:34:52;;;;;;;15.27;6.80;;;3.90;99.90;;;;;;2074785;28;20060;-76
2023/01/11 01:35:52;;;;;;;13.85;6.47;;;4.00;99.90;;;;;;2072623;28;20087;-75
2023/01/11 01:36:53;;;;;;;10.52;6.32;;;4.00;99.90;;;;;;2080685;28;20025;-75
2023/01/11 01:37:53;;;;;;;14.65;6.25;;;4.00;99.90;;;;;;2079103;28;20100;-75
2023/01/11 01:38:54;;;;;;;14.10;6.60;;;4.00;99.90;;;;;;2070923;28;20036;-75
2023/01/11 01:39:55;;;;;;;12.80;6.40;;;4.00;99.90;;;;;;2071071;28;20042;-76
2023/01/11 01:40:55;;;;;;;11.48;6.05;;;4.00;99.90;;;;;;2081206;28;20084;-75
2023/01/11 01:41:56;;;;;;;14.77;6.40;;;4.00;99.90;;;;;;2078978;28;20067;-75
2023/01/11 01:42:57;;;;;;;13.02;6.35;;;4.00;99.90;;;;;;2069207;28;20113;-75
2023/01/11 01:44:00;;;;;;;13.93;6.03;;;4.00;99.90;;;;;;2068992;28;20331;-75
2023/01/11 01:45:05;;;;;;;10.93;5.88;;;4.00;99.90;;;;;;2071473;28;20029;-74
2023/01/11 01:46:06;;;;;;;14.00;6.30;;;4.00;99.90;;;;;;2071065;28;20421;-74
2023/01/11 01:47:06;;;;;;;11.98;5.72;;;4.00;99.90;;;;;;2077256;28;20065;-75
2023/01/11 01:48:11;;;;;;;12.77;5.90;;;4.00;99.90;;;;;;2071088;28;20037;-74
2023/01/11 01:49:14;;;;;;;13.13;6.13;;;4.00;99.90;;;;;;2078390;28;20066;-74
2023/01/11 01:50:23;;;;;;;11.90;5.85;;;4.00;99.90;;;;;;2079706;28;20110;-74
2023/01/11 01:51:29;;;;;;;12.52;5.97;;;4.00;99.90;;;;;;2085951;28;20585;-76
2023/01/11 01:52:32;;;;;;;11.95;5.82;;;4.00;99.90;;;;;;2086115;28;20028;-75
2023/01/11 01:53:40;;;;;;;14.00;5.55;;;4.00;99.90;;;;;;2078172;28;20436;-77
2023/01/11 01:54:44;;;;;;;13.98;6.20;;;4.00;99.90;;;;;;2073949;28;20053;-77
2023/01/11 01:55:50;;;;;;;12.07;5.90;;;4.00;99.90;;;;;;2085597;28;20025;-76
2023/01/11 01:56:55;;;;;;;16.08;6.57;;;4.00;99.90;;;;;;2067045;28;20504;-76
2023/01/11 01:57:57;;;;;;;13.30;5.90;;;4.00;99.90;;;;;;2073837;28;20077;-75
2023/01/11 01:59:03;;;;;;;12.20;6.10;;;4.00;99.90;;;;;;2086552;28;20060;-77
2023/01/11 02:00:07;;;;;;;15.30;6.13;;;4.00;99.90;;;;;;2081707;28;20105;-74
2023/01/11 02:02:27;;;;;;;14.52;6.45;;;4.00;99.90;;;;;;2077651;28;20057;-75
2023/01/11 02:03:28;;;;;;;16.25;6.97;;;4.00;99.90;;;;;;2080094;28;20504;-75
2023/01/11 02:04:34;;;;;;;14.27;6.57;;;3.90;99.90;;;;;;2068879;28;20041;-75
2023/01/11 02:05:35;;;;;;;14.02;6.40;;;4.00;99.90;;;;;;2069183;28;20051;-75
2023/01/11 02:06:36;;;;;;;11.45;6.35;;;3.90;99.90;;;;;;2080370;28;20025;-75
2023/01/11 02:07:39;;;;;;;14.40;6.88;;;3.90;99.90;;;;;;2078478;28;20048;-75
2023/01/11 02:08:45;;;;;;;12.00;6.32;;;3.90;99.90;;;;;;2075664;28;20492;-74
2023/01/11 02:10:14;;;;;;;14.32;6.78;;;3.90;99.90;;;;;;2076220;28;20099;-76
2023/01/11 02:11:31;;;;;;;16.60;6.93;;;3.90;99.90;;;;;;2069412;28;20053;-75
2023/01/11 02:12:41;;;;;;;12.52;6.30;;;4.00;99.90;;;;;;2077604;28;20032;-75
2023/01/11 02:13:44;;;;;;;14.35;6.60;;;3.90;99.90;;;;;;2078758;28;20557;-75
2023/01/11 02:14:48;;;;;;;12.85;6.57;;;3.90;99.90;;;;;;2078313;28;20025;-75
2023/01/11 02:16:06;;;;;;;14.80;7.15;;;4.00;99.90;;;;;;2079178;28;20432;-76
2023/01/11 02:17:07;;;;;;;16.13;7.70;;;3.90;99.90;;;;;;2076103;28;20029;-75
2023/01/11 02:18:12;;;;;;;15.63;7.20;;;4.00;99.90;;;;;;2077673;28;20048;-76
2023/01/11 02:19:23;;;;;;;13.65;7.38;;;4.00;99.90;;;;;;2079186;28;20029;-76
2023/01/11 02:20:40;;;;;;;;;;;4.00;99.90;;;;;;2066003;28;20172;-76
2023/01/11 02:21:56;;;;;;;17.10;7.38;;;4.00;99.90;;;;;;2072471;28;19917;-75
2023/01/11 02:23:05;;;;;;;15.75;7.43;;;4.00;99.90;;;;;;2081472;28;20033;-76
2023/01/11 02:24:09;;;;;;;16.35;7.63;;;4.00;99.90;;;;;;2081353;28;20033;-75
2023/01/11 02:25:36;;;;;;;13.82;7.00;;;4.00;99.90;;;;;;2078640;28;20290;-76
2023/01/11 02:26:54;;;;;;;19.13;7.32;;;4.00;99.90;;;;;;2079741;28;20040;-74
2023/01/11 02:28:06;;;;;;;16.77;7.35;;;4.00;99.90;;;;;;2070279;28;20042;-76
2023/01/11 02:29:31;;;;;;;13.63;7.07;;;4.10;99.90;;;;;;2072022;28;20041;-75
2023/01/11 02:30:54;;;;;;;15.55;7.00;;;4.10;99.90;;;;;;2067618;28;20022;-76
2023/01/11 02:32:31;;;;;;;13.73;7.00;;;4.10;99.90;;;;;;2076946;28;20107;-76
2023/01/11 02:33:55;;;;;;;14.00;7.72;;;4.20;99.90;;;;;;2052677;28;20869;-75
2023/01/11 02:35:26;;;;;;;17.40;7.50;;;4.20;99.90;;;;;;2069299;28;20014;-75
2023/01/11 02:36:49;;;;;;;12.68;6.88;;;4.20;99.90;;;;;;2081380;28;20055;-76
2023/01/11 02:38:04;;;;;;;14.73;7.30;;;4.20;99.90;;;;;;2085120;28;20036;-76
2023/01/11 02:39:18;;;;;;;15.23;7.97;;;4.20;99.90;;;;;;2074783;28;20408;-75
2023/01/11 02:40:49;;;;;;;15.63;7.43;;;4.20;99.90;;;;;;2074807;28;20033;-76
2023/01/11 02:45:26;;;;;;;17.08;6.93;;;4.20;99.90;;;;;;2058829;28;20038;-76
2023/01/11 02:46:40;;;;;;;12.73;6.70;;;4.20;99.90;;;;;;2068648;28;20029;-76
2023/01/11 02:47:54;;;;;;;13.88;6.80;;;4.20;99.90;;;;;;2074978;28;20810;-77
2023/01/11 02:49:25;;;;;;;15.23;7.60;;;4.20;99.90;;;;;;2078500;28;20025;-76
2023/01/11 02:50:41;;;;;;;16.88;7.22;;;4.20;99.90;;;;;;2073023;28;20048;-76
2023/01/11 02:51:49;;;;;;;12.48;6.65;;;4.20;99.90;;;;;;2075468;28;20033;-77
2023/01/11 02:53:06;;;;;;;12.18;6.50;;;4.20;99.90;;;;;;2075905;28;20033;-76
2023/01/11 02:54:10;;;;;;;16.60;7.32;;;4.10;99.90;;;;;;2066714;28;20552;-77
2023/01/11 02:55:14;;;;;;;12.40;6.88;;;4.20;99.90;;;;;;2068766;28;20685;-76
2023/01/11 02:56:40;;;;;;;14.52;6.40;;;4.10;99.90;;;;;;2076050;28;20021;-76
2023/01/11 02:57:43;;;;;;;12.50;6.25;;;4.10;99.90;;;;;;2074681;28;20068;-76
2023/01/11 02:58:47;;;;;;;12.60;6.50;;;4.10;99.90;;;;;;2079588;28;20029;-75
2023/01/11 02:59:49;;;;;;;13.70;6.90;;;4.10;99.90;;;;;;2073355;28;20028;-76
2023/01/11 03:00:50;;;;;;;12.43;6.43;;;4.10;99.90;;;;;;2063547;28;20027;-76
2023/01/11 03:01:54;;;;;;;12.52;6.88;;;4.20;99.90;;;;;;2068110;28;20060;-76
2023/01/11 03:03:12;;;;;;;14.63;6.90;;;4.10;99.90;;;;;;2067800;28;20042;-76
2023/01/11 03:04:28;;;;;;;12.57;6.68;;;4.10;99.90;;;;;;2063208;28;20037;-75
2023/01/11 03:05:29;;;;;;;12.20;6.32;;;4.10;99.90;;;;;;2083548;28;20033;-76
2023/01/11 03:06:34;;;;;;;11.45;6.35;;;4.20;99.90;;;;;;2077229;28;20121;-75
2023/01/11 03:07:37;;;;;;;15.45;6.68;;;4.20;99.90;;;;;;2081949;28;20128;-75
2023/01/11 03:09:11;;;;;;;14.50;6.80;;;4.20;99.90;;;;;;2078189;28;20736;-76
2023/01/11 03:10:38;;;;;;;14.35;6.88;;;4.20;99.90;;;;;;2080153;28;20068;-76
2023/01/11 03:13:38;;;;;;;;;;;4.20;99.90;;;;;;2082342;28;20025;-78
2023/01/11 03:14:52;;;;;;;11.15;6.32;;;4.30;99.90;;;;;;2077756;28;19975;-77
2023/01/11 03:16:08;;;;;;;16.52;6.85;;;4.30;99.90;;;;;;2078144;28;20028;-77
2023/01/11 03:17:33;;;;;;;10.63;6.55;;;4.30;99.90;;;;;;2077805;28;20104;-77
2023/01/11 03:18:52;;;;;;;13.85;6.82;;;4.30;99.90;;;;;;2078554;28;20041;-76
2023/01/11 03:20:00;;;;;;;14.68;6.80;;;4.30;99.90;;;;;;2078432;28;20525;-76
2023/01/11 03:21:00;;;;;;;13.57;7.10;;;4.30;99.90;;;;;;2082242;28;20036;-76
2023/01/11 03:22:09;;;;;;;11.30;6.65;;;4.30;99.90;;;;;;2070946;28;20038;-77
2023/01/11 03:23:27;;;;;;;12.55;6.53;;;4.40;99.90;;;;;;2067708;28;20034;-76
2023/01/11 03:24:56;;;;;;;17.25;7.32;;;4.40;99.90;;;;;;2079376;28;20057;-76
2023/01/11 03:26:00;;;;;;;13.48;6.53;;;4.40;99.90;;;;;;2076532;28;20046;-76
2023/01/11 03:27:15;;;;;;;13.70;6.60;;;4.40;99.90;;;;;;2078734;28;20038;-76
2023/01/11 03:28:42;;;;;;;12.75;6.60;;;4.40;99.90;;;;;;2077846;28;20048;-76
2023/01/11 03:29:56;;;;;;;12.00;6.47;;;4.40;99.90;;;;;;2064738;28;20037;-75
2023/01/11 03:31:07;;;;;;;13.27;6.93;;;4.40;99.90;;;;;;2075752;28;20040;-74
2023/01/11 03:32:13;;;;;;;;;;;4.40;99.90;;;;;;2075607;28;20679;-73
2023/01/11 03:33:38;;;;;;;14.55;6.60;;;4.40;99.90;;;;;;2072521;28;19909;-75
2023/01/11 03:34:47;;;;;;;11.98;6.35;;;4.40;99.90;;;;;;2066626;28;20116;-72
2023/01/11 03:36:23;;;;;;;13.85;6.57;;;4.40;99.90;;;;;;2070658;28;20030;-72
2023/01/11 03:37:33;;;;;;;14.73;6.97;;;4.40;99.90;;;;;;2075019;28;20025;-73
2023/01/11 03:38:45;;;;;;;;;;;4.40;99.90;;;;;;2076996;28;20506;-73
2023/01/11 03:39:59;;;;;;;13.95;6.88;;;4.40;99.90;;;;;;2075977;28;19925;-73
2023/01/11 03:41:12;;;;;;;13.20;6.18;;;4.40;99.90;;;;;;2078187;28;20021;-72
2023/01/11 03:42:16;;;;;;;12.00;6.45;;;4.40;99.90;;;;;;2079084;28;20064;-73
2023/01/11 03:43:22;;;;;;;17.10;7.10;;;4.40;99.90;;;;;;2076977;28;20033;-73
2023/01/11 03:44:25;;;;;;;13.18;6.38;;;4.40;99.90;;;;;;2077784;28;20037;-72
2023/01/11 03:45:26;;;;;;;13.45;6.40;;;4.40;99.90;;;;;;2078932;28;20118;-73
2023/01/11 03:46:29;;;;;;;13.52;6.40;;;4.40;99.90;;;;;;2076306;28;20018;-73
2023/01/11 03:47:32;;;;;;;11.52;5.97;;;4.40;99.90;;;;;;2082666;28;20108;-73
2023/01/11 03:48:36;;;;;;;12.23;6.45;;;4.50;99.90;;;;;;2069479;28;20034;-72
2023/01/11 03:49:42;;;;;;;12.52;6.47;;;4.50;99.90;;;;;;2069934;28;20018;-72
2023/01/11 03:50:45;;;;;;;10.35;5.90;;;4.50;99.90;;;;;;2080967;28;20030;-72
2023/01/11 03:51:46;;;;;;;10.80;5.78;;;4.50;99.90;;;;;;2079945;28;20029;-73
2023/01/11 03:52:49;;;;;;;10.15;5.85;;;4.50;99.90;;;;;;2081465;28;20037;-73
2023/01/11 03:53:51;;;;;;;12.50;5.78;;;4.50;99.90;;;;;;2073405;28;20040;-73
2023/01/11 03:54:54;;;;;;;11.95;6.20;;;4.50;99.90;;;;;;2084169;28;20033;-72
2023/01/11 03:55:57;;;;;;;11.98;6.55;;;4.50;99.90;;;;;;2083015;28;20045;-72
2023/01/11 03:57:02;;;;;;;14.05;6.00;;;4.50;99.90;;;;;;2081349;28;20028;-73
2023/01/11 03:58:03;;;;;;;14.20;6.43;;;4.50;99.90;;;;;;2080927;28;20017;-73
2023/01/11 03:59:03;;;;;;;11.82;5.75;;;4.50;99.90;;;;;;2082143;28;20457;-73
2023/01/11 04:00:06;;;;;;;12.57;6.20;;;4.50;99.90;;;;;;2077560;28;20052;-72
2023/01/11 04:01:07;;;;;;;14.07;6.22;;;4.50;99.90;;;;;;2079847;28;20104;-72
2023/01/11 04:02:26;;;;;;;13.48;6.18;;;4.50;99.90;;;;;;2081753;28;20025;-73
2023/01/11 04:03:27;;;;;;;14.00;6.28;;;4.50;99.90;;;;;;2086285;28;20025;-72
2023/01/11 04:04:28;;;;;;;9.43;5.57;;;4.50;99.90;;;;;;2080254;28;20018;-72
2023/01/11 04:05:29;;;;;;;12.75;6.15;;;4.60;99.90;;;;;;2078765;28;20109;-73
2023/01/11 04:06:34;;;;;;;11.55;5.80;;;4.60;99.90;;;;;;2077819;28;20487;-72
2023/01/11 04:07:35;;;;;;;10.85;5.70;;;4.60;99.90;;;;;;2078216;28;20045;-72
2023/01/11 04:08:35;;;;;;;11.27;5.80;;;4.60;99.90;;;;;;2080564;28;20046;-71
2023/01/11 04:09:36;;;;;;;12.38;6.10;;;4.60;99.90;;;;;;2077958;28;20021;-72
2023/01/11 04:10:37;;;;;;;11.52;5.40;;;4.60;99.90;;;;;;2067374;28;20110;-72
2023/01/11 04:11:37;;;;;;;10.65;5.50;;;4.60;99.90;;;;;;2072563;28;20116;-72
2023/01/11 04:12:38;;;;;;;10.00;5.63;;;4.60;99.90;;;;;;2081023;28;20068;-71
2023/01/11 04:13:38;;;;;;;10.98;5.28;;;4.60;99.90;;;;;;2080319;28;20091;-71
2023/01/11 04:14:39;;;;;;;13.10;6.10;;;4.60;99.90;;;;;;2081565;28;20041;-72
2023/01/11 04:15:40;;;;;;;10.52;5.50;;;4.60;99.90;;;;;;2073035;28;20021;-72
2023/01/11 04:16:40;;;;;;;10.90;5.47;;;4.60;99.90;;;;;;2080063;28;20016;-72
2023/01/11 04:17:41;;;;;;;11.55;5.50;;;4.60;99.90;;;;;;2077301;28;20032;-74
2023/01/11 04:18:42;;;;;;;13.18;5.57;;;4.60;99.90;;;;;;2077794;28;20025;-73
2023/01/11 04:19:43;;;;;;;12.43;5.70;;;4.60;99.90;;;;;;2080430;28;20036;-72
2023/01/11 04:20:45;;;;;;;8.88;5.22;;;4.60;99.90;;;;;;2077327;28;20033;-72
2023/01/11 04:21:46;;;;;;;11.63;5.68;;;4.60;99.90;;;;;;2078224;28;20454;-72
2023/01/11 04:22:46;;;;;;;11.77;5.60;;;4.60;99.90;;;;;;2079978;28;20035;-73
2023/01/11 04:23:48;;;;;;;13.85;5.68;;;4.70;99.90;;;;;;2080189;28;20112;-72
2023/01/11 04:24:48;;;;;;;12.15;5.40;;;4.70;99.90;;;;;;2082002;28;20033;-72
2023/01/11 04:25:49;;;;;;;11.95;5.47;;;4.70;99.90;;;;;;2084404;28;20490;-72
2023/01/11 04:26:49;;;;;;;13.00;6.22;;;4.60;99.90;;;;;;2079917;28;20071;-72
2023/01/11 04:27:50;;;;;;;11.90;5.95;;;4.70;99.90;;;;;;2084908;28;20021;-72
2023/01/11 04:28:50;;;;;;;11.32;5.70;;;4.70;99.90;;;;;;2081895;28;20025;-73
2023/01/11 04:29:51;;;;;;;11.38;5.68;;;4.70;99.90;;;;;;2081945;28;20033;-73
2023/01/11 04:30:52;;;;;;;12.85;5.30;;;4.70;99.90;;;;;;2077246;28;20037;-73
2023/01/11 04:31:53;;;;;;;9.98;5.75;;;4.70;99.90;;;;;;2078379;28;20032;-71
2023/01/11 04:32:56;;;;;;;9.48;5.40;;;4.70;99.90;;;;;;2078632;28;20044;-74
2023/01/11 04:33:57;;;;;;;11.80;5.40;;;4.70;99.90;;;;;;2076731;28;20106;-74
2023/01/11 04:34:57;;;;;;;11.18;5.25;;;4.70;99.90;;;;;;2069829;28;20567;-71
2023/01/11 04:35:58;;;;;;;10.40;5.53;;;4.70;99.90;;;;;;2070351;28;20504;-74
2023/01/11 04:36:58;;;;;;;11.88;5.65;;;4.80;99.90;;;;;;2081534;28;20535;-72
2023/01/11 04:37:59;;;;;;;10.32;5.43;;;4.80;99.90;;;;;;2079588;28;20036;-72
2023/01/11 04:39:00;;;;;;;10.77;5.47;;;4.80;99.90;;;;;;2076074;28;20026;-71
2023/01/11 04:40:00;;;;;;;12.43;5.80;;;4.80;99.90;;;;;;2079845;28;20037;-72
2023/01/11 04:42:21;;;;;;;10.87;5.70;;;4.80;99.90;;;;;;2076229;28;20035;-72
2023/01/11 04:43:22;;;;;;;12.25;5.78;;;4.80;99.90;;;;;;2076424;28;20394;-73
2023/01/11 04:44:23;;;;;;;13.82;7.20;;;4.80;99.90;;;;;;2076933;28;20033;-72
2023/01/11 04:45:24;;;;;;;15.07;6.85;;;4.80;99.90;;;;;;2076110;28;20447;-72
2023/01/11 04:46:24;;;;;;;12.52;6.10;;;4.80;99.90;;;;;;2080637;28;20040;-73
2023/01/11 04:47:25;;;;;;;9.82;5.50;;;4.90;99.90;;;;;;2080359;28;20033;-72
2023/01/11 04:48:25;;;;;;;13.52;5.80;;;4.80;99.90;;;;;;2072035;28;20033;-72
2023/01/11 04:49:26;;;;;;;14.05;5.90;;;4.80;99.90;;;;;;2061391;28;20031;-72
2023/01/11 04:50:27;;;;;;;10.38;5.45;;;4.90;99.90;;;;;;2073152;28;20084;-72
2023/01/11 04:51:27;;;;;;;12.65;5.40;;;4.80;99.90;;;;;;2082762;28;20037;-72
2023/01/11 04:52:28;;;;;;;10.75;5.53;;;4.90;99.90;;;;;;2079016;28;20017;-72
2023/01/11 04:53:28;;;;;;;12.68;5.68;;;4.90;99.90;;;;;;2078669;28;20013;-86
2023/01/11 04:54:29;;;;;;;12.90;5.72;;;4.90;99.90;;;;;;2070763;28;20076;-86
2023/01/11 04:55:29;;;;;;;13.32;5.95;;;4.90;99.90;;;;;;2075635;28;20021;-87
2023/01/11 04:56:30;;;;;;;10.90;5.65;;;4.90;99.90;;;;;;2082502;28;20029;-85
2023/01/11 04:57:30;;;;;;;14.98;6.10;;;4.90;99.90;;;;;;2078023;28;20431;-86
2023/01/11 04:58:34;;;;;;;10.25;5.53;;;4.90;99.90;;;;;;2087522;28;20029;-82
2023/01/11 04:59:34;;;;;;;14.68;6.40;;;4.90;99.90;;;;;;2083659;28;20040;-85
2023/01/11 05:00:35;;;;;;;10.55;6.18;;;4.90;99.90;;;;;;2088305;28;20036;-86
2023/01/11 05:01:36;;;;;;;10.95;6.10;;;4.90;99.90;;;;;;2072086;28;20369;-85
2023/01/11 05:02:37;;;;;;;12.40;6.30;;;4.90;99.90;;;;;;2068332;28;20041;-85
2023/01/11 05:03:37;;;;;;;10.63;6.35;;;5.00;99.90;;;;;;2085263;28;20115;-85
2023/01/11 05:04:38;;;;;;;10.55;5.85;;;5.00;99.90;;;;;;2089373;28;20036;-84
2023/01/11 05:05:39;;;;;;;11.52;5.75;;;5.00;99.90;;;;;;2083714;28;20022;-86
2023/01/11 05:06:39;;;;;;;11.77;5.97;;;5.00;99.90;;;;;;2075589;28;20542;-84
2023/01/11 05:07:40;;;;;;;12.48;5.65;;;5.00;99.90;;;;;;2082525;28;20029;-85
2023/01/11 05:08:45;;;;;;;11.60;5.70;;;5.00;99.90;;;;;;2092976;28;20063;-87
2023/01/11 05:09:45;;;;;;;11.02;5.45;;;5.00;99.90;;;;;;2082521;28;20121;-86
2023/01/11 05:10:51;;;;;;;11.52;5.60;;;5.00;99.90;;;;;;2071748;28;20076;-86
2023/01/11 05:11:52;;;;;;;12.95;6.15;;;5.00;99.90;;;;;;2082319;28;20285;-84
2023/01/11 05:12:52;;;;;;;10.73;5.80;;;5.10;99.90;;;;;;2081170;28;20029;-87
2023/01/11 05:13:53;;;;;;;10.57;5.72;;;5.10;99.90;;;;;;2070688;28;20038;-83
2023/01/11 05:14:53;;;;;;;9.88;5.47;;;5.10;99.90;;;;;;2080141;28;20033;-83
2023/01/11 05:15:54;;;;;;;16.38;6.47;;;5.10;99.90;;;;;;2072089;28;20082;-84
2023/01/11 05:16:54;;;;;;;11.40;6.25;;;5.10;99.90;;;;;;2065861;28;20056;-85
2023/01/11 05:17:55;;;;;;;11.55;5.47;;;5.10;99.90;;;;;;2070452;28;20025;-85
2023/01/11 05:19:00;;;;;;;12.10;5.63;;;5.10;99.90;;;;;;2067529;28;20049;-86
2023/01/11 05:20:01;;;;;;;13.93;5.45;;;5.10;99.90;;;;;;2070722;28;20037;-84
2023/01/11 05:21:03;;;;;;;9.43;5.30;;;5.20;99.90;;;;;;2079386;28;20112;-84
2023/01/11 05:22:03;;;;;;;10.10;5.50;;;5.20;99.90;;;;;;2078248;28;20041;-84
2023/01/11 05:23:04;;;;;;;9.55;5.28;;;5.20;99.90;;;;;;2067621;28;20030;-84
2023/01/11 05:24:10;;;;;;;10.57;5.43;;;5.20;99.90;;;;;;2069385;28;20105;-86
2023/01/11 05:25:11;;;;;;;10.43;4.85;;;5.20;99.90;;;;;;2081405;28;20033;-88
2023/01/11 05:26:18;;;;;;;11.38;5.70;;;5.20;99.90;;;;;;2085744;28;20069;-87
2023/01/11 05:27:19;;;;;;;10.90;5.30;;;5.20;99.90;;;;;;2074615;28;20037;-82
2023/01/11 05:28:19;;;;;;;11.73;5.80;;;5.20;99.90;;;;;;2081391;28;20041;-80
2023/01/11 05:29:20;;;;;;;10.55;5.35;;;5.20;99.90;;;;;;2082972;28;20025;-85
2023/01/11 05:30:21;;;;;;;9.60;5.43;;;5.20;99.90;;;;;;2075813;28;20036;-87
2023/01/11 05:31:23;;;;;;;12.05;5.80;;;5.20;99.90;;;;;;2072823;28;20112;-84
2023/01/11 05:32:23;;;;;;;10.48;5.10;;;5.20;99.90;;;;;;2077164;28;20030;-87
2023/01/11 05:33:24;;;;;;;11.45;5.50;;;5.20;99.90;;;;;;2075075;28;20799;-89
2023/01/11 05:34:24;;;;;;;9.88;5.10;;;5.20;99.90;;;;;;2083510;28;20467;-89
2023/01/11 05:35:25;;;;;;;8.30;5.18;;;5.20;99.90;;;;;;2085800;28;20056;-85
2023/01/11 05:36:26;;;;;;;10.27;5.10;;;5.30;99.90;;;;;;2081734;28;20047;-89
2023/01/11 05:37:28;;;;;;;10.45;5.35;;;5.20;99.90;;;;;;2085333;28;20117;-88
2023/01/11 05:38:29;;;;;;;8.75;4.93;;;5.30;99.90;;;;;;2080309;28;20021;-83
2023/01/11 05:39:29;;;;;;;11.15;5.07;;;5.30;99.90;;;;;;2077939;28;20041;-81
2023/01/11 05:40:30;;;;;;;9.63;4.95;;;5.30;99.90;;;;;;2082978;28;20029;-84
2023/01/11 05:41:31;;;;;;;9.25;5.05;;;5.30;99.90;;;;;;2073329;28;20104;-82
2023/01/11 05:42:32;;;;;;;8.75;4.80;;;5.30;99.90;;;;;;2072353;28;20060;-82
2023/01/11 05:43:33;;;;;;;7.60;4.55;;;5.30;99.90;;;;;;2083028;28;20037;-82
2023/01/11 05:45:53;;;;;;;9.18;4.88;;;5.30;99.90;;;;;;2067564;28;20057;-82
2023/01/11 05:46:53;;;;;;;10.57;5.30;;;5.30;99.90;;;;;;2074805;28;20030;-82
2023/01/11 05:47:54;;;;;;;9.07;5.22;;;5.30;99.90;;;;;;2075844;28;20029;-82
2023/01/11 05:48:55;;;;;;;9.23;4.75;;;5.30;99.90;;;;;;2069274;28;20187;-84
2023/01/11 05:49:55;;;;;;;9.73;5.30;;;5.40;99.90;;;;;;2076414;28;20018;-83
2023/01/11 05:50:56;;;;;;;9.38;5.20;;;5.30;99.90;;;;;;2070088;28;20511;-83
2023/01/11 05:51:56;;;;;;;8.50;4.72;;;5.30;99.90;;;;;;2072203;28;20029;-82
2023/01/11 05:52:57;;;;;;;10.18;4.97;;;5.30;99.90;;;;;;2078565;28;20048;-84